Time;durP1;ratioP1;P1;durP2;ratioP2;P2;SDS_P1;SDS_P2;PMS_P1;PMS_P2;Temp;Humidity;BMP_temperature;BMP_pressure;BME280_temperature;BME280_humidity;BME280_pressure;Samples;Min_cycle;Max_cycle;Signal;HPM_P1;HPM_P2
2022/03/19 00:00:05;;;;;;;40.22;22.90;;;;;;;;;;6217893;28;20050;-73
2022/03/19 00:03:37;;;;;;;41.40;22.15;;;;;;;;;;6217762;28;20061;-72
2022/03/19 00:06:41;;;;;;;39.88;21.88;;;;;;;;;;6217587;28;20057;-74
2022/03/19 00:09:45;;;;;;;37.42;21.50;;;;;;;;;;6216781;28;20045;-72
2022/03/19 00:12:49;;;;;;;37.67;20.50;;;;;;;;;;6217845;28;20054;-73
2022/03/19 00:15:52;;;;;;;40.70;22.98;;;;;;;;;;6217288;28;20056;-73
2022/03/19 00:18:55;;;;;;;47.05;24.60;;;;;;;;;;6216622;28;20045;-73
2022/03/19 00:21:58;;;;;;;40.47;21.30;;;;;;;;;;6217464;28;20068;-72
2022/03/19 00:25:03;;;;;;;40.63;22.70;;;;;;;;;;6216690;28;20054;-72
2022/03/19 00:28:07;;;;;;;42.33;22.63;;;;;;;;;;6216589;28;20423;-72
2022/03/19 00:31:10;;;;;;;43.17;23.00;;;;;;;;;;6219438;28;20046;-73
2022/03/19 00:34:13;;;;;;;40.70;21.73;;;;;;;;;;6221974;28;20054;-73
2022/03/19 00:37:16;;;;;;;43.00;23.20;;;;;;;;;;6220578;28;20054;-74
2022/03/19 00:40:22;;;;;;;46.25;24.90;;;;;;;;;;6218356;28;20065;-72
2022/03/19 00:43:25;;;;;;;40.47;21.98;;;;;;;;;;6221628;28;20056;-75
2022/03/19 00:46:28;;;;;;;40.80;22.58;;;;;;;;;;6221377;28;20060;-75
2022/03/19 00:49:33;;;;;;;40.20;22.10;;;;;;;;;;6220615;28;20088;-74
2022/03/19 00:52:39;;;;;;;38.47;22.30;;;;;;;;;;6220874;28;20056;-74
2022/03/19 00:55:43;;;;;;;43.28;22.85;;;;;;;;;;6221857;28;20287;-73
2022/03/19 00:58:47;;;;;;;40.58;22.00;;;;;;;;;;6219878;28;20208;-73
2022/03/19 01:01:50;;;;;;;39.22;23.33;;;;;;;;;;6219812;28;20396;-73
2022/03/19 01:04:53;;;;;;;41.50;22.70;;;;;;;;;;6221119;28;20144;-72
2022/03/19 01:07:57;;;;;;;41.90;22.90;;;;;;;;;;6220616;28;20045;-73
2022/03/19 01:11:01;;;;;;;38.55;21.17;;;;;;;;;;6220128;28;20184;-73
2022/03/19 01:14:04;;;;;;;37.47;20.38;;;;;;;;;;6221209;28;20049;-73
2022/03/19 01:17:08;;;;;;;42.30;23.05;;;;;;;;;;6220435;28;20141;-73
2022/03/19 01:20:12;;;;;;;37.33;22.35;;;;;;;;;;6220459;28;20050;-73
2022/03/19 01:23:15;;;;;;;38.63;21.88;;;;;;;;;;6220550;28;20053;-73
2022/03/19 01:26:19;;;;;;;38.50;22.30;;;;;;;;;;6220443;28;20112;-73
2022/03/19 01:29:24;;;;;;;40.60;21.95;;;;;;;;;;6202821;28;20124;-73
2022/03/19 01:32:28;;;;;;;38.67;22.45;;;;;;;;;;6201969;28;20058;-72
2022/03/19 01:35:31;;;;;;;40.65;22.55;;;;;;;;;;6220892;28;20052;-72
2022/03/19 01:38:34;;;;;;;41.03;22.27;;;;;;;;;;6219107;28;20523;-72
2022/03/19 01:41:42;;;;;;;39.60;21.25;;;;;;;;;;6218576;28;20042;-72
2022/03/19 01:44:45;;;;;;;42.60;22.75;;;;;;;;;;6220613;28;20050;-72
2022/03/19 01:47:48;;;;;;;39.60;20.90;;;;;;;;;;6219959;28;20046;-72
2022/03/19 01:50:51;;;;;;;36.58;20.95;;;;;;;;;;6219948;28;20057;-72
2022/03/19 01:53:54;;;;;;;38.20;22.20;;;;;;;;;;6219388;28;20171;-73
2022/03/19 01:56:59;;;;;;;39.33;21.98;;;;;;;;;;6224953;28;20119;-73
2022/03/19 02:00:03;;;;;;;36.15;20.33;;;;;;;;;;6246955;28;20436;-73
2022/03/19 02:03:13;;;;;;;39.38;21.98;;;;;;;;;;6220629;28;20053;-74
2022/03/19 02:06:16;;;;;;;36.08;20.17;;;;;;;;;;6219968;28;20393;-72
2022/03/19 02:09:19;;;;;;;38.92;21.60;;;;;;;;;;6235052;28;20050;-73
2022/03/19 02:12:23;;;;;;;39.75;20.77;;;;;;;;;;6219304;28;20057;-73
2022/03/19 02:15:26;;;;;;;38.10;21.05;;;;;;;;;;6219070;28;20054;-73
2022/03/19 02:18:33;;;;;;;39.80;21.20;;;;;;;;;;6219609;28;20050;-74
2022/03/19 02:21:39;;;;;;;36.58;20.52;;;;;;;;;;6219064;28;20335;-73
2022/03/19 02:28:04;;;;;;;41.45;21.38;;;;;;;;;;6219159;28;20046;-72
2022/03/19 02:31:09;;;;;;;39.47;21.27;;;;;;;;;;6219130;28;20519;-74
2022/03/19 02:34:14;;;;;;;37.08;20.27;;;;;;;;;;6219002;28;20053;-73
2022/03/19 02:37:17;;;;;;;38.67;20.50;;;;;;;;;;6217428;28;20054;-74
2022/03/19 02:40:24;;;;;;;36.33;21.02;;;;;;;;;;6218113;28;20057;-76
2022/03/19 02:43:27;;;;;;;36.75;20.38;;;;;;;;;;6217042;28;20046;-73
2022/03/19 02:46:39;;;;;;;38.42;20.48;;;;;;;;;;6218365;28;20056;-73
2022/03/19 02:49:42;;;;;;;38.70;21.75;;;;;;;;;;6200369;28;20049;-76
2022/03/19 02:52:48;;;;;;;37.40;20.40;;;;;;;;;;6218447;28;20046;-77
2022/03/19 02:55:52;;;;;;;38.40;20.17;;;;;;;;;;6217881;28;20050;-73
2022/03/19 02:58:57;;;;;;;39.70;20.75;;;;;;;;;;6218196;28;20042;-73
2022/03/19 03:02:04;;;;;;;41.03;21.70;;;;;;;;;;6217546;28;20514;-74
2022/03/19 03:05:07;;;;;;;35.33;20.13;;;;;;;;;;6218565;28;20050;-74
2022/03/19 03:08:10;;;;;;;38.13;20.05;;;;;;;;;;6216184;28;20466;-76
2022/03/19 03:11:14;;;;;;;34.38;18.88;;;;;;;;;;6218193;28;20053;-76
2022/03/19 03:14:20;;;;;;;38.13;20.23;;;;;;;;;;6217740;28;20108;-74
2022/03/19 03:17:24;;;;;;;38.70;20.08;;;;;;;;;;6217653;28;20041;-73
2022/03/19 03:20:27;;;;;;;39.05;21.30;;;;;;;;;;6217689;28;20046;-73
2022/03/19 03:23:31;;;;;;;39.40;20.00;;;;;;;;;;6201043;28;20053;-74
2022/03/19 03:26:35;;;;;;;34.80;19.23;;;;;;;;;;6217835;28;20046;-75
2022/03/19 03:29:39;;;;;;;32.80;19.42;;;;;;;;;;6217266;28;20484;-75
2022/03/19 03:32:43;;;;;;;36.58;20.35;;;;;;;;;;6218263;28;20484;-75
2022/03/19 03:35:46;;;;;;;41.88;21.23;;;;;;;;;;6217998;28;20049;-75
2022/03/19 03:38:49;;;;;;;37.83;20.38;;;;;;;;;;6217095;28;20068;-74
2022/03/19 03:41:53;;;;;;;36.05;19.88;;;;;;;;;;6216331;28;20034;-75
2022/03/19 03:44:58;;;;;;;39.03;20.77;;;;;;;;;;6218108;28;20407;-75
2022/03/19 03:48:02;;;;;;;37.42;20.40;;;;;;;;;;6217908;28;20050;-75
2022/03/19 03:51:06;;;;;;;38.45;20.52;;;;;;;;;;6216929;28;20177;-73
2022/03/19 03:54:09;;;;;;;36.63;20.05;;;;;;;;;;6217917;28;20053;-74
2022/03/19 03:57:13;;;;;;;36.67;19.98;;;;;;;;;;6217769;28;20038;-75
2022/03/19 04:00:17;;;;;;;33.40;19.50;;;;;;;;;;6216374;28;20499;-72
2022/03/19 04:03:19;;;;;;;33.90;19.20;;;;;;;;;;6232817;28;20440;-72
2022/03/19 04:06:25;;;;;;;36.45;18.52;;;;;;;;;;6220934;28;20725;-74
2022/03/19 04:09:28;;;;;;;36.58;19.67;;;;;;;;;;6222348;28;20129;-74
2022/03/19 04:12:32;;;;;;;37.47;19.00;;;;;;;;;;6236771;28;20045;-74
2022/03/19 04:15:35;;;;;;;38.15;20.67;;;;;;;;;;6222496;28;20051;-73
2022/03/19 04:18:41;;;;;;;34.33;19.50;;;;;;;;;;6220690;28;20050;-73
2022/03/19 04:21:43;;;;;;;32.65;18.85;;;;;;;;;;6221341;28;20123;-73
2022/03/19 04:24:46;;;;;;;38.17;20.83;;;;;;;;;;6220730;28;20531;-73
2022/03/19 04:27:51;;;;;;;32.60;19.48;;;;;;;;;;6221785;28;20530;-74
2022/03/19 04:30:54;;;;;;;37.33;19.53;;;;;;;;;;6220384;28;20077;-74
2022/03/19 04:33:57;;;;;;;34.60;18.80;;;;;;;;;;6221433;28;20042;-74
2022/03/19 04:37:00;;;;;;;33.63;18.92;;;;;;;;;;6220780;28;20053;-72
2022/03/19 04:40:06;;;;;;;33.17;19.55;;;;;;;;;;6221298;28;20049;-73
2022/03/19 04:43:13;;;;;;;35.10;20.00;;;;;;;;;;6220304;28;20047;-73
2022/03/19 04:46:16;;;;;;;38.22;19.83;;;;;;;;;;6237389;28;20038;-73
2022/03/19 04:49:19;;;;;;;41.90;19.70;;;;;;;;;;6221335;28;20103;-73
2022/03/19 04:52:25;;;;;;;38.50;20.33;;;;;;;;;;6220934;28;20452;-73
2022/03/19 04:55:28;;;;;;;36.72;20.30;;;;;;;;;;6221326;28;20045;-73
2022/03/19 04:58:32;;;;;;;33.15;19.02;;;;;;;;;;6221459;28;20056;-73
2022/03/19 05:01:35;;;;;;;38.70;19.33;;;;;;;;;;6222278;28;20042;-73
2022/03/19 05:04:39;;;;;;;36.53;19.35;;;;;;;;;;6220324;28;20046;-74
2022/03/19 05:07:42;;;;;;;35.58;20.05;;;;;;;;;;6221348;28;20543;-75
2022/03/19 05:14:15;;;;;;;37.45;21.23;;;;;;;;;;6219278;28;20054;-75
2022/03/19 05:17:18;;;;;;;35.33;19.23;;;;;;;;;;6218938;28;20046;-75
2022/03/19 05:20:21;;;;;;;35.40;20.80;;;;;;;;;;6220951;28;20042;-73
2022/03/19 05:23:24;;;;;;;34.53;19.90;;;;;;;;;;6220199;28;20061;-76
2022/03/19 05:26:28;;;;;;;39.95;20.38;;;;;;;;;;6218831;28;20050;-75
2022/03/19 05:29:33;;;;;;;36.15;20.13;;;;;;;;;;6219356;28;20068;-75
2022/03/19 05:32:36;;;;;;;41.07;21.63;;;;;;;;;;6222616;28;20050;-75
2022/03/19 05:35:39;;;;;;;37.45;20.73;;;;;;;;;;6254756;28;20041;-73
2022/03/19 05:38:42;;;;;;;41.42;22.50;;;;;;;;;;6224428;28;20054;-75
2022/03/19 05:41:45;;;;;;;41.55;23.27;;;;;;;;;;6219447;28;20056;-73
2022/03/19 05:44:50;;;;;;;39.10;22.00;;;;;;;;;;6220135;28;20046;-74
2022/03/19 05:47:52;;;;;;;39.40;22.40;;;;;;;;;;6234627;28;20050;-74
2022/03/19 05:50:55;;;;;;;37.83;22.63;;;;;;;;;;6220394;28;20049;-76
2022/03/19 05:54:03;;;;;;;45.53;23.15;;;;;;;;;;6219764;28;20480;-73
2022/03/19 05:57:06;;;;;;;38.65;21.55;;;;;;;;;;6219172;28;20046;-73
2022/03/19 06:00:11;;;;;;;34.70;20.65;;;;;;;;;;6219781;28;20053;-75
2022/03/19 06:03:14;;;;;;;44.70;22.90;;;;;;;;;;6218990;28;20042;-73
2022/03/19 06:06:17;;;;;;;40.03;22.00;;;;;;;;;;6233655;28;20046;-74
2022/03/19 06:09:22;;;;;;;44.65;22.75;;;;;;;;;;6217873;28;20046;-74
2022/03/19 06:12:25;;;;;;;41.70;24.58;;;;;;;;;;6217959;28;20061;-73
2022/03/19 06:15:31;;;;;;;;;;;;;;;;;;6234566;28;20088;-74
2022/03/19 06:18:35;;;;;;;39.25;21.55;;;;;;;;;;6218485;28;19921;-75
2022/03/19 06:21:42;;;;;;;41.30;23.48;;;;;;;;;;6219437;28;20045;-75
2022/03/19 06:24:52;;;;;;;40.90;22.52;;;;;;;;;;6218309;28;20108;-75
2022/03/19 06:27:55;;;;;;;43.17;23.80;;;;;;;;;;6231077;28;20052;-76
2022/03/19 06:30:58;;;;;;;44.88;24.02;;;;;;;;;;6215578;28;20484;-75
2022/03/19 06:34:05;;;;;;;47.58;23.98;;;;;;;;;;6216745;28;20046;-75
2022/03/19 06:37:21;;;;;;;43.85;24.27;;;;;;;;;;6216157;28;20050;-76
2022/03/19 06:40:25;;;;;;;40.55;23.23;;;;;;;;;;6216379;28;20050;-75
2022/03/19 06:43:28;;;;;;;49.03;28.83;;;;;;;;;;6233959;28;20050;-75
2022/03/19 06:46:31;;;;;;;51.78;28.17;;;;;;;;;;6218326;28;20049;-75
2022/03/19 06:49:35;;;;;;;54.95;30.60;;;;;;;;;;6218029;28;20496;-75
2022/03/19 06:52:38;;;;;;;53.58;30.55;;;;;;;;;;6218051;28;20444;-75
2022/03/19 06:55:41;;;;;;;57.22;32.13;;;;;;;;;;6218656;28;20077;-75
2022/03/19 06:58:44;;;;;;;60.88;32.70;;;;;;;;;;6218534;28;20060;-75
2022/03/19 07:01:47;;;;;;;59.25;31.92;;;;;;;;;;6217302;28;20123;-75
2022/03/19 07:04:55;;;;;;;55.67;31.73;;;;;;;;;;6231136;28;20136;-76
2022/03/19 07:08:01;;;;;;;55.50;32.45;;;;;;;;;;6218040;28;20137;-75
2022/03/19 07:11:04;;;;;;;48.08;28.10;;;;;;;;;;6216477;28;20447;-76
2022/03/19 07:14:10;;;;;;;52.80;27.88;;;;;;;;;;6217842;28;20161;-74
2022/03/19 07:17:15;;;;;;;51.72;28.48;;;;;;;;;;6218280;28;20495;-75
2022/03/19 07:20:19;;;;;;;46.90;25.77;;;;;;;;;;6215621;28;20052;-74
2022/03/19 07:23:22;;;;;;;43.30;22.85;;;;;;;;;;6217636;28;20424;-74
2022/03/19 07:26:28;;;;;;;48.90;23.85;;;;;;;;;;6216677;28;20038;-74
2022/03/19 07:29:31;;;;;;;41.78;23.30;;;;;;;;;;6217761;28;20042;-74
2022/03/19 07:32:34;;;;;;;41.83;23.02;;;;;;;;;;6217035;28;20064;-75
2022/03/19 07:35:38;;;;;;;45.28;23.45;;;;;;;;;;6218355;28;20050;-74
2022/03/19 07:38:47;;;;;;;42.97;24.63;;;;;;;;;;6216441;28;20061;-74
2022/03/19 07:41:55;;;;;;;49.08;25.27;;;;;;;;;;6217057;28;20053;-74
2022/03/19 07:45:02;;;;;;;47.70;25.00;;;;;;;;;;6216791;28;20408;-74
2022/03/19 07:48:06;;;;;;;52.25;27.80;;;;;;;;;;6217274;28;20535;-72
2022/03/19 07:51:31;;;;;;;61.97;36.72;;;;;;;;;;6217526;28;20420;-72
2022/03/19 07:54:36;;;;;;;;;;;;;;;;;;6217883;28;20062;-73
2022/03/19 07:57:38;;;;;;;50.88;28.00;;;;;;;;;;6232096;28;19929;-74
2022/03/19 08:00:41;;;;;;;50.60;29.10;;;;;;;;;;6218238;28;20042;-75
2022/03/19 08:03:45;;;;;;;55.58;30.33;;;;;;;;;;6217428;28;20134;-75
2022/03/19 08:06:53;;;;;;;55.22;30.10;;;;;;;;;;6232079;28;20046;-73
2022/03/19 08:10:00;;;;;;;47.67;28.27;;;;;;;;;;6216137;28;20053;-74
2022/03/19 08:13:04;;;;;;;51.75;29.48;;;;;;;;;;6232345;28;20050;-73
2022/03/19 08:16:08;;;;;;;49.30;27.80;;;;;;;;;;6217358;28;20060;-74
2022/03/19 08:19:12;;;;;;;45.67;27.60;;;;;;;;;;6216792;28;20121;-74
2022/03/19 08:22:18;;;;;;;41.05;25.58;;;;;;;;;;6217815;28;20073;-75
2022/03/19 08:25:22;;;;;;;42.38;25.85;;;;;;;;;;6217083;28;20500;-74
2022/03/19 08:28:24;;;;;;;46.10;25.23;;;;;;;;;;6215160;28;20052;-73
2022/03/19 08:31:28;;;;;;;44.05;24.92;;;;;;;;;;6217300;28;20046;-75
2022/03/19 08:34:31;;;;;;;42.67;24.95;;;;;;;;;;6216141;28;20056;-72
2022/03/19 08:37:36;;;;;;;45.63;25.55;;;;;;;;;;6215600;28;20050;-74
2022/03/19 08:40:38;;;;;;;43.25;26.63;;;;;;;;;;6216487;28;20450;-71
2022/03/19 08:43:41;;;;;;;43.30;23.85;;;;;;;;;;6217226;28;20053;-74
2022/03/19 08:46:43;;;;;;;38.25;25.13;;;;;;;;;;6216981;28;20153;-74
2022/03/19 08:49:47;;;;;;;42.30;24.75;;;;;;;;;;6231520;28;20096;-74
2022/03/19 08:52:51;;;;;;;50.42;26.60;;;;;;;;;;6219500;28;20116;-74
2022/03/19 08:55:56;;;;;;;45.38;26.15;;;;;;;;;;6234100;28;20048;-76
2022/03/19 08:58:59;;;;;;;51.87;26.57;;;;;;;;;;6234229;28;20502;-74
2022/03/19 09:02:02;;;;;;;41.20;24.88;;;;;;;;;;6222137;28;20057;-75
2022/03/19 09:05:07;;;;;;;42.47;23.17;;;;;;;;;;6235734;28;20041;-75
2022/03/19 09:08:12;;;;;;;39.60;23.88;;;;;;;;;;6225108;28;20050;-74
2022/03/19 09:11:17;;;;;;;40.08;22.83;;;;;;;;;;6216681;28;20092;-76
2022/03/19 09:14:24;;;;;;;37.03;23.23;;;;;;;;;;6217976;28;20041;-75
2022/03/19 09:17:27;;;;;;;37.85;22.42;;;;;;;;;;6218184;28;20050;-75
2022/03/19 09:20:30;;;;;;;40.38;22.40;;;;;;;;;;6220128;28;20046;-73
2022/03/19 09:23:34;;;;;;;42.17;22.80;;;;;;;;;;6220800;28;20052;-75
2022/03/19 09:26:39;;;;;;;31.50;19.33;;;;;;;;;;6220810;28;20049;-75
2022/03/19 09:29:43;;;;;;;36.53;19.00;;;;;;;;;;6220605;28;20050;-75
2022/03/19 09:32:46;;;;;;;31.52;17.77;;;;;;;;;;6220197;28;20046;-75
2022/03/19 09:36:08;;;;;;;30.23;18.40;;;;;;;;;;6220707;28;20049;-75
2022/03/19 09:39:13;;;;;;;28.52;16.90;;;;;;;;;;6235041;28;20057;-75
2022/03/19 09:42:18;;;;;;;28.30;16.98;;;;;;;;;;6219630;28;20053;-75
2022/03/19 09:45:26;;;;;;;27.55;16.67;;;;;;;;;;6220001;28;20053;-73
2022/03/19 09:48:29;;;;;;;31.05;18.48;;;;;;;;;;6235268;28;20045;-75
2022/03/19 09:51:33;;;;;;;29.95;18.10;;;;;;;;;;6220084;28;20046;-73
2022/03/19 09:54:40;;;;;;;31.25;17.63;;;;;;;;;;6234531;28;20049;-74
2022/03/19 09:57:43;;;;;;;30.05;18.00;;;;;;;;;;6235483;28;20053;-74
2022/03/19 10:00:46;;;;;;;33.95;18.77;;;;;;;;;;6219950;28;20050;-73
2022/03/19 10:03:50;;;;;;;31.35;18.23;;;;;;;;;;6218728;28;20058;-73
2022/03/19 10:10:19;;;;;;;28.52;17.52;;;;;;;;;;6219753;28;20056;-73
2022/03/19 10:13:22;;;;;;;29.85;18.02;;;;;;;;;;6219750;28;20129;-75
2022/03/19 10:16:28;;;;;;;27.10;17.15;;;;;;;;;;6218569;28;20053;-74
2022/03/19 10:19:31;;;;;;;27.33;16.92;;;;;;;;;;6219871;28;20058;-73
2022/03/19 10:22:35;;;;;;;27.27;16.02;;;;;;;;;;6219463;28;20037;-75
2022/03/19 10:25:39;;;;;;;28.38;16.33;;;;;;;;;;6218888;28;20489;-74
2022/03/19 10:28:43;;;;;;;28.83;17.13;;;;;;;;;;6234213;28;20042;-75
2022/03/19 10:31:46;;;;;;;27.10;16.70;;;;;;;;;;6219360;28;20120;-74
2022/03/19 10:34:49;;;;;;;26.60;16.35;;;;;;;;;;6219056;28;20045;-73
2022/03/19 10:37:53;;;;;;;25.67;15.48;;;;;;;;;;6217941;28;20482;-74
2022/03/19 10:41:03;;;;;;;27.27;15.93;;;;;;;;;;6218999;28;20053;-74
2022/03/19 10:44:12;;;;;;;27.23;16.25;;;;;;;;;;6233760;28;20524;-74
2022/03/19 10:47:21;;;;;;;26.02;14.73;;;;;;;;;;6218415;28;20447;-74
2022/03/19 10:50:25;;;;;;;27.15;17.15;;;;;;;;;;6218430;28;20408;-74
2022/03/19 10:53:30;;;;;;;29.45;16.95;;;;;;;;;;6218629;28;20060;-74
2022/03/19 10:56:37;;;;;;;28.65;16.58;;;;;;;;;;6218444;28;20045;-74
2022/03/19 10:59:40;;;;;;;28.25;16.60;;;;;;;;;;6217929;28;20049;-74
2022/03/19 11:02:45;;;;;;;24.45;15.73;;;;;;;;;;6233819;28;20400;-73
2022/03/19 11:05:56;;;;;;;26.02;15.02;;;;;;;;;;6218161;28;20085;-75
2022/03/19 11:09:01;;;;;;;;;;;;;;;;;;6218775;28;20180;-74
2022/03/19 11:12:09;;;;;;;25.23;14.40;;;;;;;;;;6217929;28;19921;-74
2022/03/19 11:15:12;;;;;;;;;;;;;;;;;;6218030;28;20042;-75
2022/03/19 11:18:19;;;;;;;22.58;14.40;;;;;;;;;;6218182;28;19932;-74
2022/03/19 11:21:23;;;;;;;23.00;14.68;;;;;;;;;;6217342;28;20057;-74
2022/03/19 11:24:27;;;;;;;23.98;14.13;;;;;;;;;;6218309;28;20488;-74
2022/03/19 11:27:32;;;;;;;26.38;14.63;;;;;;;;;;6217885;28;20125;-75
2022/03/19 11:30:36;;;;;;;;;;;;;;;;;;6218202;28;20451;-74
2022/03/19 11:33:38;;;;;;;20.83;13.32;;;;;;;;;;6217700;28;19932;-74
2022/03/19 11:36:54;;;;;;;24.67;14.40;;;;;;;;;;6218022;28;20436;-74
2022/03/19 11:40:04;;;;;;;25.48;14.80;;;;;;;;;;6217323;28;20389;-74
2022/03/19 11:43:08;;;;;;;21.17;13.77;;;;;;;;;;6216697;28;20045;-74
2022/03/19 11:46:14;;;;;;;23.30;14.63;;;;;;;;;;6217870;28;20049;-74
2022/03/19 11:49:34;;;;;;;25.35;14.48;;;;;;;;;;6232594;28;20811;-74
2022/03/19 11:52:56;;;;;;;25.15;13.98;;;;;;;;;;6215755;28;20176;-74
2022/03/19 11:56:01;;;;;;;24.88;14.20;;;;;;;;;;6217082;28;20424;-75
2022/03/19 11:59:06;;;;;;;24.70;14.85;;;;;;;;;;6217919;28;20064;-73
2022/03/19 12:02:14;;;;;;;24.35;15.10;;;;;;;;;;6232433;28;20046;-75
2022/03/19 12:05:18;;;;;;;22.27;14.70;;;;;;;;;;6216561;28;20049;-75
2022/03/19 12:08:26;;;;;;;21.70;14.45;;;;;;;;;;6217273;28;20050;-75
2022/03/19 12:11:29;;;;;;;21.58;13.57;;;;;;;;;;6232922;28;20061;-75
2022/03/19 12:14:34;;;;;;;22.70;13.85;;;;;;;;;;6217299;28;20116;-74
2022/03/19 12:17:36;;;;;;;26.13;14.45;;;;;;;;;;6232169;28;20615;-75
2022/03/19 12:20:42;;;;;;;20.85;14.02;;;;;;;;;;6232609;28;20050;-74
2022/03/19 12:23:50;;;;;;;20.73;13.10;;;;;;;;;;6217405;28;20481;-74
2022/03/19 12:26:55;;;;;;;22.92;12.93;;;;;;;;;;6219626;28;20408;-73
2022/03/19 12:29:59;;;;;;;23.70;14.63;;;;;;;;;;6236933;28;20506;-75
2022/03/19 12:33:03;;;;;;;19.67;13.20;;;;;;;;;;6222156;28;20045;-75
2022/03/19 12:36:16;;;;;;;23.55;13.82;;;;;;;;;;6225690;28;20098;-76
2022/03/19 12:39:19;;;;;;;21.35;13.55;;;;;;;;;;6240228;28;20618;-74
2022/03/19 12:42:29;;;;;;;19.95;13.18;;;;;;;;;;6230497;28;20045;-74
2022/03/19 12:45:37;;;;;;;22.77;12.38;;;;;;;;;;6221858;28;20050;-74
2022/03/19 12:48:44;;;;;;;19.42;13.00;;;;;;;;;;6236804;28;20480;-74
2022/03/19 12:51:48;;;;;;;19.85;13.02;;;;;;;;;;6236386;28;20050;-74
2022/03/19 12:54:55;;;;;;;21.45;14.20;;;;;;;;;;6221614;28;20050;-74
2022/03/19 12:57:59;;;;;;;20.45;12.65;;;;;;;;;;6221500;28;20046;-74
2022/03/19 13:01:06;;;;;;;22.80;14.05;;;;;;;;;;6220795;28;20050;-74
2022/03/19 13:04:09;;;;;;;23.08;12.38;;;;;;;;;;6236811;28;20057;-74
2022/03/19 13:07:13;;;;;;;18.92;11.43;;;;;;;;;;6236065;28;20052;-75
2022/03/19 13:10:19;;;;;;;18.50;11.27;;;;;;;;;;6219664;28;20096;-74
2022/03/19 13:13:23;;;;;;;20.75;11.85;;;;;;;;;;6220521;28;20129;-75
2022/03/19 13:16:29;;;;;;;18.42;11.35;;;;;;;;;;6221045;28;20053;-72
2022/03/19 13:19:33;;;;;;;17.40;10.43;;;;;;;;;;6220392;28;20050;-75
2022/03/19 13:22:38;;;;;;;18.77;10.90;;;;;;;;;;6220008;28;20060;-74
2022/03/19 13:25:42;;;;;;;20.15;11.88;;;;;;;;;;6220816;28;20056;-74
2022/03/19 13:28:59;;;;;;;17.75;10.63;;;;;;;;;;6220282;28;20050;-73
2022/03/19 13:32:04;;;;;;;19.25;11.32;;;;;;;;;;6235707;28;20124;-74
2022/03/19 13:35:10;;;;;;;16.95;10.38;;;;;;;;;;6220066;28;20484;-74
2022/03/19 13:38:13;;;;;;;18.83;10.20;;;;;;;;;;6219734;28;20057;-74
2022/03/19 13:41:17;;;;;;;17.45;11.23;;;;;;;;;;6219955;28;20046;-74
2022/03/19 13:44:32;;;;;;;16.27;10.02;;;;;;;;;;6220157;28;20464;-74
2022/03/19 13:47:38;;;;;;;17.17;9.63;;;;;;;;;;6219981;28;20080;-74
2022/03/19 13:50:55;;;;;;;15.60;10.40;;;;;;;;;;6220171;28;20381;-75
2022/03/19 13:53:58;;;;;;;20.60;10.30;;;;;;;;;;6234656;28;20049;-73
2022/03/19 13:57:05;;;;;;;17.58;9.70;;;;;;;;;;6219648;28;20301;-73
2022/03/19 14:00:09;;;;;;;16.92;10.15;;;;;;;;;;6218462;28;20045;-73
2022/03/19 14:03:21;;;;;;;17.20;9.95;;;;;;;;;;6218984;28;20049;-72
2022/03/19 14:06:32;;;;;;;15.80;9.50;;;;;;;;;;6219264;28;20045;-75
2022/03/19 14:09:35;;;;;;;15.00;9.02;;;;;;;;;;6219376;28;20042;-74
2022/03/19 14:12:41;;;;;;;13.77;8.93;;;;;;;;;;6219269;28;20439;-75
2022/03/19 14:15:45;;;;;;;13.63;8.32;;;;;;;;;;6218916;28;20039;-75
2022/03/19 14:18:51;;;;;;;13.55;8.30;;;;;;;;;;6218539;28;20053;-74
2022/03/19 14:21:54;;;;;;;16.80;8.48;;;;;;;;;;6219344;28;20042;-72
2022/03/19 14:24:59;;;;;;;13.05;8.32;;;;;;;;;;6218611;28;20467;-75
2022/03/19 14:28:06;;;;;;;14.93;8.32;;;;;;;;;;6218735;28;20077;-76
2022/03/19 14:31:13;;;;;;;13.23;7.95;;;;;;;;;;6218717;28;20054;-73
2022/03/19 14:34:20;;;;;;;14.40;8.63;;;;;;;;;;6219096;28;20046;-74
2022/03/19 14:37:23;;;;;;;15.57;8.75;;;;;;;;;;6218429;28;20061;-73
2022/03/19 14:40:28;;;;;;;14.45;8.10;;;;;;;;;;6218203;28;20054;-74
2022/03/19 14:43:35;;;;;;;13.18;7.80;;;;;;;;;;6218912;28;20045;-75
2022/03/19 14:46:41;;;;;;;12.18;7.93;;;;;;;;;;6218947;28;20050;-76
2022/03/19 14:49:48;;;;;;;13.70;8.90;;;;;;;;;;6218970;28;20054;-75
2022/03/19 14:52:51;;;;;;;11.57;7.68;;;;;;;;;;6233686;28;20053;-75
2022/03/19 14:55:54;;;;;;;13.52;7.70;;;;;;;;;;6219157;28;20108;-74
2022/03/19 14:58:59;;;;;;;15.23;8.52;;;;;;;;;;6218635;28;20498;-75
2022/03/19 15:02:02;;;;;;;13.85;8.82;;;;;;;;;;6218778;28;20057;-74
2022/03/19 15:05:07;;;;;;;14.05;7.75;;;;;;;;;;6219073;28;20133;-74
2022/03/19 15:08:11;;;;;;;12.35;8.00;;;;;;;;;;6218548;28;20427;-74
2022/03/19 15:11:13;;;;;;;14.23;8.45;;;;;;;;;;6218469;28;20641;-74
2022/03/19 15:14:18;;;;;;;;;;;;;;;;;;6233794;28;20057;-75
2022/03/19 15:17:21;;;;;;;13.95;8.77;;;;;;;;;;6218358;28;20364;-75
2022/03/19 15:20:26;;;;;;;17.45;8.77;;;;;;;;;;6218173;28;20042;-75
2022/03/19 15:23:29;;;;;;;19.58;8.35;;;;;;;;;;6232665;28;20045;-73
2022/03/19 15:26:34;;;;;;;12.15;8.05;;;;;;;;;;6218031;28;20069;-75
2022/03/19 15:29:40;;;;;;;13.73;8.05;;;;;;;;;;6218030;28;20065;-75
2022/03/19 15:32:43;;;;;;;11.50;7.38;;;;;;;;;;6217150;28;20054;-74
2022/03/19 15:35:47;;;;;;;13.38;7.85;;;;;;;;;;6218241;28;20046;-74
2022/03/19 15:38:50;;;;;;;14.00;7.63;;;;;;;;;;6217628;28;20058;-74
2022/03/19 15:41:53;;;;;;;12.90;7.30;;;;;;;;;;6217897;28;20132;-74
2022/03/19 15:44:58;;;;;;;16.38;8.02;;;;;;;;;;6232508;28;20046;-74
2022/03/19 15:48:02;;;;;;;14.48;8.02;;;;;;;;;;6218061;28;20042;-74
2022/03/19 15:51:07;;;;;;;10.95;7.75;;;;;;;;;;6217593;28;20046;-75
2022/03/19 15:54:10;;;;;;;13.82;8.25;;;;;;;;;;6216904;28;20052;-74
2022/03/19 15:57:13;;;;;;;12.82;7.38;;;;;;;;;;6217476;28;20050;-74
2022/03/19 16:00:16;;;;;;;13.65;7.40;;;;;;;;;;6217422;28;20038;-74
2022/03/19 16:03:21;;;;;;;;;;;;;;;;;;6222901;28;20053;-74
2022/03/19 16:06:25;;;;;;;11.15;7.07;;;;;;;;;;6222005;28;20287;-74
2022/03/19 16:09:28;;;;;;;14.45;7.55;;;;;;;;;;6222625;28;20046;-74
2022/03/19 16:12:38;;;;;;;12.25;7.30;;;;;;;;;;6222805;28;20045;-74
2022/03/19 16:15:41;;;;;;;12.85;7.50;;;;;;;;;;6231642;28;20121;-74
2022/03/19 16:18:44;;;;;;;13.07;7.32;;;;;;;;;;6241687;28;20114;-74
2022/03/19 16:21:51;;;;;;;14.38;7.60;;;;;;;;;;6223986;28;20053;-74
2022/03/19 16:24:53;;;;;;;12.93;7.57;;;;;;;;;;6223051;28;20053;-75
2022/03/19 16:27:59;;;;;;;14.25;7.40;;;;;;;;;;6222085;28;20053;-75
2022/03/19 16:31:05;;;;;;;14.23;7.93;;;;;;;;;;6222179;28;20538;-75
2022/03/19 16:34:09;;;;;;;14.05;7.45;;;;;;;;;;6221911;28;20045;-75
2022/03/19 16:37:14;;;;;;;14.95;7.57;;;;;;;;;;6221109;28;20057;-74
2022/03/19 16:40:20;;;;;;;18.25;8.23;;;;;;;;;;6237149;28;20507;-75
2022/03/19 16:43:25;;;;;;;16.00;8.60;;;;;;;;;;6222162;28;20124;-75
2022/03/19 16:46:31;;;;;;;14.18;7.30;;;;;;;;;;6236773;28;20542;-75
2022/03/19 16:49:34;;;;;;;16.77;8.30;;;;;;;;;;6236297;28;20111;-75
2022/03/19 16:52:38;;;;;;;13.38;7.50;;;;;;;;;;6221325;28;20041;-74
2022/03/19 16:55:41;;;;;;;15.25;7.68;;;;;;;;;;6221351;28;20053;-75
2022/03/19 16:58:44;;;;;;;15.38;8.68;;;;;;;;;;6220513;28;20046;-75
2022/03/19 17:01:47;;;;;;;16.55;8.10;;;;;;;;;;6221413;28;20046;-75
2022/03/19 17:04:51;;;;;;;15.75;9.48;;;;;;;;;;6221063;28;20046;-75
2022/03/19 17:07:55;;;;;;;30.88;10.25;;;;;;;;;;6220695;28;20049;-74
2022/03/19 17:11:00;;;;;;;17.27;9.43;;;;;;;;;;6220922;28;20057;-74
2022/03/19 17:14:05;;;;;;;17.65;9.65;;;;;;;;;;6219812;28;20057;-74
2022/03/19 17:17:11;;;;;;;16.83;9.30;;;;;;;;;;6220657;28;20061;-73
2022/03/19 17:20:16;;;;;;;16.23;9.55;;;;;;;;;;6219910;28;20403;-74
2022/03/19 17:23:20;;;;;;;18.67;10.18;;;;;;;;;;6221304;28;20050;-73
2022/03/19 17:26:23;;;;;;;20.75;10.65;;;;;;;;;;6220607;28;20042;-74
2022/03/19 17:29:26;;;;;;;16.25;9.50;;;;;;;;;;6220084;28;20404;-74
2022/03/19 17:32:29;;;;;;;17.88;9.88;;;;;;;;;;6220515;28;20048;-74
2022/03/19 17:35:32;;;;;;;17.17;10.23;;;;;;;;;;6235457;28;20059;-74
2022/03/19 17:38:37;;;;;;;20.30;10.07;;;;;;;;;;6220132;28;20064;-73
2022/03/19 17:41:40;;;;;;;16.75;9.82;;;;;;;;;;6220007;28;20049;-74
2022/03/19 17:44:43;;;;;;;18.92;9.82;;;;;;;;;;6220530;28;20492;-74
2022/03/19 17:47:48;;;;;;;15.30;9.13;;;;;;;;;;6220918;28;20308;-74
2022/03/19 17:50:51;;;;;;;16.73;9.65;;;;;;;;;;6219432;28;20056;-74
2022/03/19 17:53:55;;;;;;;20.13;9.40;;;;;;;;;;6235306;28;20404;-73
2022/03/19 17:56:59;;;;;;;21.30;9.27;;;;;;;;;;6219885;28;20131;-74
2022/03/19 18:00:14;;;;;;;18.60;9.10;;;;;;;;;;6219895;28;20507;-74
2022/03/19 18:03:17;;;;;;;17.00;9.40;;;;;;;;;;6218071;28;20049;-74
2022/03/19 18:06:20;;;;;;;18.75;10.15;;;;;;;;;;6219789;28;20527;-74
2022/03/19 18:09:25;;;;;;;15.77;8.50;;;;;;;;;;6219505;28;20404;-74
2022/03/19 18:12:30;;;;;;;15.50;8.70;;;;;;;;;;6219143;28;20046;-74